Time;durP1;ratioP1;P1;durP2;ratioP2;P2;SDS_P1;SDS_P2;PMS_P1;PMS_P2;Temp;Humidity;BMP_temperature;BMP_pressure;BME280_temperature;BME280_humidity;BME280_pressure;Samples;Min_cycle;Max_cycle;Signal;HPM_P1;HPM_P2
2021/01/26 00:01:22;;;;;;;43.28;26.77;;;154.30;1792.00;;;;;;5011767;28;20076;-68
2021/01/26 00:03:48;;;;;;;37.45;22.77;;;154.30;1766.40;;;;;;5005833;28;20015;-69
2021/01/26 00:06:14;;;;;;;41.10;23.88;;;154.30;1766.40;;;;;;5007016;28;20100;-69
2021/01/26 00:08:39;;;;;;;45.85;26.10;;;154.30;1766.40;;;;;;5015926;28;20027;-69
2021/01/26 00:11:06;;;;;;;38.85;23.60;;;154.30;1766.40;;;;;;5005505;28;20034;-68
2021/01/26 00:13:32;;;;;;;32.13;21.35;;;154.30;1766.40;;;;;;5006972;28;20113;-68
2021/01/26 00:15:59;;;;;;;38.45;23.58;;;154.40;1766.40;;;;;;5004983;28;20121;-68
2021/01/26 00:18:25;;;;;;;41.50;23.40;;;154.30;1766.40;;;;;;5006147;28;20466;-68
2021/01/26 00:20:50;;;;;;;48.85;25.92;;;154.40;1766.40;;;;;;5004089;28;20117;-68
2021/01/26 00:23:17;;;;;;;45.15;25.67;;;154.40;1766.40;;;;;;5004379;28;20112;-69
2021/01/26 00:25:43;;;;;;;47.63;24.88;;;154.40;1766.40;;;;;;5004959;28;20054;-68
2021/01/26 00:28:11;;;;;;;44.00;23.27;;;154.40;1792.00;;;;;;5009406;28;20030;-68
2021/01/26 00:30:39;;;;;;;38.45;22.35;;;154.40;1792.00;;;;;;5009962;28;20037;-68
2021/01/26 00:33:09;;;;;;;40.28;22.48;;;154.40;1766.40;;;;;;5001575;28;20035;-68
2021/01/26 00:35:35;;;;;;;51.75;27.10;;;154.30;1792.00;;;;;;5002741;28;20109;-68
2021/01/26 00:38:02;;;;;;;49.60;27.00;;;154.30;1792.00;;;;;;5008480;28;20097;-69
2021/01/26 00:40:29;;;;;;;50.60;26.23;;;154.30;1792.00;;;;;;5001395;28;20100;-70
2021/01/26 00:42:55;;;;;;;53.20;27.02;;;154.40;1792.00;;;;;;4995418;28;20396;-70
2021/01/26 00:45:21;;;;;;;47.05;24.98;;;154.40;1792.00;;;;;;4995335;28;20030;-69
2021/01/26 00:47:48;;;;;;;48.22;26.52;;;154.30;1792.00;;;;;;4995392;28;20026;-74
2021/01/26 00:50:14;;;;;;;53.70;29.20;;;154.30;1792.00;;;;;;4995309;28;20030;-69
2021/01/26 00:52:40;;;;;;;58.38;31.52;;;154.40;1792.00;;;;;;4995032;28;20026;-69
2021/01/26 00:55:07;;;;;;;55.38;31.17;;;154.30;1792.00;;;;;;4995359;28;20037;-69
2021/01/26 00:57:33;;;;;;;51.63;27.63;;;154.30;1792.00;;;;;;4995360;28;20032;-70
2021/01/26 00:59:58;;;;;;;50.70;28.17;;;154.40;1792.00;;;;;;4994970;28;20116;-69
2021/01/26 01:02:24;;;;;;;45.75;26.75;;;154.40;1792.00;;;;;;4995795;28;20065;-69
2021/01/26 01:04:50;;;;;;;39.55;24.00;;;154.40;1792.00;;;;;;4995097;28;20476;-69
2021/01/26 01:07:16;;;;;;;34.97;20.85;;;154.40;1792.00;;;;;;4994952;28;20068;-69
2021/01/26 01:09:43;;;;;;;32.25;19.20;;;154.40;1792.00;;;;;;4994817;28;20049;-69
2021/01/26 01:12:08;;;;;;;30.80;16.67;;;154.40;1792.00;;;;;;4995162;28;20034;-69
2021/01/26 01:14:34;;;;;;;26.17;15.65;;;154.40;1792.00;;;;;;4994818;28;20595;-69
2021/01/26 01:17:00;;;;;;;20.08;13.48;;;154.40;1792.00;;;;;;4995087;28;20032;-69
2021/01/26 01:19:26;;;;;;;21.70;14.05;;;154.30;1817.60;;;;;;4994813;28;20476;-69
2021/01/26 01:21:52;;;;;;;22.23;14.27;;;154.30;1792.00;;;;;;4994891;28;20023;-69
2021/01/26 01:24:18;;;;;;;26.45;14.30;;;154.20;1817.60;;;;;;4994666;28;20456;-70
2021/01/26 01:26:43;;;;;;;28.67;15.50;;;154.20;1792.00;;;;;;4994704;28;20038;-69
2021/01/26 01:29:11;;;;;;;28.25;14.93;;;154.20;1817.60;;;;;;4994667;28;20033;-69
2021/01/26 01:31:36;;;;;;;26.77;16.05;;;154.20;1817.60;;;;;;4994544;28;20037;-69
2021/01/26 01:34:03;;;;;;;31.45;16.20;;;154.10;1817.60;;;;;;4994640;28;20026;-69
2021/01/26 01:36:29;;;;;;;34.70;16.95;;;154.20;1817.60;;;;;;4994706;28;20117;-69
2021/01/26 01:38:55;;;;;;;29.80;17.92;;;154.10;1817.60;;;;;;4994529;28;20425;-69
2021/01/26 01:41:20;;;;;;;30.30;18.88;;;154.10;1817.60;;;;;;4994539;28;20511;-69
2021/01/26 01:43:50;;;;;;;30.25;19.05;;;154.10;1817.60;;;;;;4994509;28;20030;-69
2021/01/26 01:46:20;;;;;;;32.40;19.40;;;154.00;1817.60;;;;;;4994526;28;20041;-69
2021/01/26 01:48:47;;;;;;;35.55;20.35;;;154.10;1843.20;;;;;;4994495;28;20037;-69
2021/01/26 01:51:21;;;;;;;31.85;19.80;;;154.10;1843.20;;;;;;4994547;28;20026;-69
2021/01/26 01:53:54;;;;;;;30.33;18.63;;;154.00;1843.20;;;;;;4994597;28;20033;-69
2021/01/26 01:56:34;;;;;;;33.38;19.83;;;154.00;1843.20;;;;;;4994621;28;20030;-69
2021/01/26 01:59:08;;;;;;;32.83;19.15;;;154.00;1843.20;;;;;;4994221;28;20052;-69
2021/01/26 02:01:34;;;;;;;31.02;19.13;;;154.00;1843.20;;;;;;4994010;28;20042;-69
2021/01/26 02:04:09;;;;;;;30.90;18.27;;;154.00;1843.20;;;;;;4994151;28;20034;-69
2021/01/26 02:06:38;;;;;;;30.85;19.20;;;153.90;1843.20;;;;;;4994295;28;20057;-69
2021/01/26 02:09:16;;;;;;;27.75;17.65;;;154.00;1817.60;;;;;;4994539;28;20106;-69
2021/01/26 02:11:45;;;;;;;25.70;16.48;;;153.90;1817.60;;;;;;4994284;28;20461;-69
2021/01/26 02:14:11;;;;;;;28.02;17.55;;;153.90;1843.20;;;;;;4959670;28;20392;-69
2021/01/26 02:16:55;;;;;;;27.98;16.25;;;153.90;1843.20;;;;;;4993957;28;20461;-69
2021/01/26 02:19:39;;;;;;;25.67;16.10;;;153.90;1817.60;;;;;;4994359;28;20026;-69
2021/01/26 02:22:32;;;;;;;24.13;16.00;;;153.90;1817.60;;;;;;4994116;28;20473;-69
2021/01/26 02:25:12;;;;;;;24.25;15.82;;;153.80;1817.60;;;;;;4993717;28;20046;-69
2021/01/26 02:28:13;;;;;;;23.52;15.10;;;153.80;1843.20;;;;;;4994092;28;20376;-69
2021/01/26 02:31:10;;;;;;;22.50;15.23;;;153.80;1843.20;;;;;;4994115;28;20092;-69
2021/01/26 02:34:16;;;;;;;22.48;15.18;;;153.70;1843.20;;;;;;4994261;28;20122;-69
2021/01/26 02:37:15;;;;;;;23.40;15.45;;;153.70;1843.20;;;;;;4915126;29;20045;-69
2021/01/26 02:40:12;;;;;;;22.40;14.18;;;153.70;1843.20;;;;;;4914958;29;20391;-69
2021/01/26 02:43:04;;;;;;;24.38;15.00;;;153.70;1843.20;;;;;;4877543;29;20069;-69
2021/01/26 02:45:43;;;;;;;21.45;14.68;;;153.70;1843.20;;;;;;4877474;29;20029;-69
2021/01/26 02:48:40;;;;;;;22.98;14.65;;;153.60;1843.20;;;;;;4877447;29;20041;-69
2021/01/26 02:51:15;;;;;;;22.52;14.27;;;153.60;1843.20;;;;;;4880335;29;20066;-69
2021/01/26 02:54:02;;;;;;;31.58;17.33;;;153.60;1843.20;;;;;;4880827;29;20035;-69
2021/01/26 02:56:48;;;;;;;24.90;16.23;;;153.60;1843.20;;;;;;4880873;29;20037;-69
2021/01/26 02:59:26;;;;;;;21.67;14.82;;;153.60;1843.20;;;;;;4880718;29;20554;-69
2021/01/26 03:02:04;;;;;;;23.80;16.00;;;153.60;1843.20;;;;;;4880877;29;20472;-69
2021/01/26 03:04:55;;;;;;;23.80;15.13;;;153.60;1843.20;;;;;;4880841;29;20033;-69
2021/01/26 03:07:24;;;;;;;27.80;15.48;;;128.90;1843.20;;;;;;4880922;29;20513;-69
2021/01/26 03:09:57;;;;;;;28.30;16.85;;;128.90;1843.20;;;;;;4865109;29;20044;-69
2021/01/26 03:12:31;;;;;;;25.05;16.60;;;128.90;1843.20;;;;;;4883596;29;20502;-69
2021/01/26 03:15:03;;;;;;;22.53;16.13;;;128.90;1843.20;;;;;;4918084;29;20063;-69
2021/01/26 03:17:41;;;;;;;27.10;17.42;;;128.80;1843.20;;;;;;4918442;29;20415;-69
2021/01/26 03:20:17;;;;;;;26.80;17.13;;;128.80;1868.80;;;;;;4970148;28;20050;-69
2021/01/26 03:22:50;;;;;;;30.17;18.13;;;128.80;1843.20;;;;;;4997071;28;20022;-69
2021/01/26 03:25:20;;;;;;;34.75;18.38;;;128.70;1868.80;;;;;;4979558;28;20444;-69
2021/01/26 03:28:00;;;;;;;31.77;18.52;;;128.80;1868.80;;;;;;4996882;28;20450;-69
2021/01/26 03:30:31;;;;;;;30.98;18.48;;;128.70;1868.80;;;;;;4996446;28;20073;-69
2021/01/26 03:33:03;;;;;;;31.50;17.42;;;128.70;1868.80;;;;;;4996858;28;20035;-69
2021/01/26 03:35:29;;;;;;;23.98;16.20;;;128.70;1843.20;;;;;;4996935;28;20023;-69
2021/01/26 03:38:03;;;;;;;25.08;16.92;;;128.70;1843.20;;;;;;4996899;28;20022;-69
2021/01/26 03:40:29;;;;;;;24.67;16.73;;;128.60;1843.20;;;;;;4996415;28;20038;-69
2021/01/26 03:42:55;;;;;;;29.40;16.90;;;128.60;1843.20;;;;;;5008010;28;20033;-69
2021/01/26 03:45:20;;;;;;;28.65;17.88;;;128.50;1843.20;;;;;;5016198;28;20026;-69
2021/01/26 03:48:23;;;;;;;27.08;16.88;;;128.50;1868.80;;;;;;5016190;28;20022;-69
2021/01/26 03:51:08;;;;;;;27.10;17.50;;;128.50;1843.20;;;;;;5016138;28;20022;-69
2021/01/26 03:54:12;;;;;;;27.33;17.52;;;128.40;1868.80;;;;;;5016133;28;20030;-69
2021/01/26 03:57:15;;;;;;;28.65;18.02;;;128.40;1868.80;;;;;;5015979;28;20037;-69
2021/01/26 04:00:12;;;;;;;39.47;16.83;;;128.40;1868.80;;;;;;5015856;28;20052;-69
2021/01/26 04:03:07;;;;;;;38.80;17.13;;;128.40;1868.80;;;;;;5015902;28;20022;-69
2021/01/26 04:05:53;;;;;;;29.90;17.08;;;128.40;1894.40;;;;;;4917497;29;20356;-69
2021/01/26 04:08:38;;;;;;;26.30;16.65;;;128.30;1868.80;;;;;;4917226;29;20043;-69
2021/01/26 04:11:24;;;;;;;;;;;128.30;1868.80;;;;;;4917705;29;20052;-69
2021/01/26 04:14:12;;;;;;;23.05;15.48;;;128.30;1868.80;;;;;;4917113;29;19915;-69
2021/01/26 04:17:08;;;;;;;24.55;15.40;;;128.10;1868.80;;;;;;4916953;29;20160;-69
2021/01/26 04:19:42;;;;;;;31.05;17.08;;;128.10;1868.80;;;;;;4898066;29;20142;-69
2021/01/26 04:22:11;;;;;;;22.80;14.98;;;128.10;1868.80;;;;;;4898137;29;20025;-69
2021/01/26 04:24:37;;;;;;;23.70;15.68;;;128.10;1868.80;;;;;;4897894;29;20499;-69
2021/01/26 04:27:06;;;;;;;29.55;15.73;;;128.00;1868.80;;;;;;4897964;29;20103;-69
2021/01/26 04:29:33;;;;;;;25.45;15.70;;;128.00;1868.80;;;;;;4897870;29;20124;-69
2021/01/26 04:31:59;;;;;;;25.52;16.15;;;128.00;1868.80;;;;;;4898007;29;20112;-69
2021/01/26 04:34:25;;;;;;;28.33;16.70;;;128.00;1894.40;;;;;;4897986;29;20059;-69
2021/01/26 04:36:51;;;;;;;23.83;15.70;;;128.00;1868.80;;;;;;4881919;29;20072;-69
2021/01/26 04:39:16;;;;;;;25.67;16.33;;;103.30;1868.80;;;;;;4897933;29;20029;-69
2021/01/26 04:41:47;;;;;;;23.02;15.20;;;103.30;1868.80;;;;;;4904353;29;20051;-69
2021/01/26 04:44:34;;;;;;;28.83;16.92;;;103.30;1868.80;;;;;;4951931;29;20086;-69
2021/01/26 04:47:12;;;;;;;26.55;17.08;;;103.30;1868.80;;;;;;4954824;29;20398;-69
2021/01/26 04:49:51;;;;;;;23.80;16.17;;;103.20;1868.80;;;;;;4954542;29;20385;-69
2021/01/26 04:52:49;;;;;;;28.35;17.08;;;103.20;1868.80;;;;;;4954473;29;20054;-69
2021/01/26 04:55:30;;;;;;;46.65;26.77;;;103.20;1868.80;;;;;;4958669;28;20039;-69
2021/01/26 04:58:25;;;;;;;50.17;28.23;;;103.10;1868.80;;;;;;5014672;28;20050;-69
2021/01/26 05:01:27;;;;;;;49.83;31.53;;;103.10;1843.20;;;;;;4916161;29;20145;-69
2021/01/26 05:04:10;;;;;;;45.47;30.08;;;103.10;1868.80;;;;;;4916256;29;20783;-69
2021/01/26 05:06:42;;;;;;;41.63;26.73;;;103.10;1868.80;;;;;;4916075;29;20033;-69
2021/01/26 05:09:14;;;;;;;34.35;23.98;;;103.00;1868.80;;;;;;4916105;29;20043;-68
2021/01/26 05:11:42;;;;;;;32.88;21.42;;;103.00;1868.80;;;;;;4916055;29;20118;-69
2021/01/26 05:14:26;;;;;;;26.52;18.27;;;103.00;1868.80;;;;;;4915648;29;20032;-69
2021/01/26 05:17:00;;;;;;;26.87;16.70;;;103.00;1868.80;;;;;;4916153;29;20169;-69
2021/01/26 05:19:45;;;;;;;25.42;15.88;;;103.00;1868.80;;;;;;4900102;29;20438;-68
2021/01/26 05:22:35;;;;;;;22.05;14.98;;;103.00;1868.80;;;;;;4915956;29;20043;-69
2021/01/26 05:25:08;;;;;;;23.60;15.68;;;102.90;1868.80;;;;;;4915753;29;20122;-68
2021/01/26 05:27:34;;;;;;;25.80;14.90;;;102.90;1868.80;;;;;;4915866;29;20051;-68
2021/01/26 05:30:03;;;;;;;24.75;15.73;;;102.90;1868.80;;;;;;4915732;29;20035;-69
2021/01/26 05:32:29;;;;;;;33.67;21.80;;;102.80;1868.80;;;;;;4915785;29;20141;-68
2021/01/26 05:34:56;;;;;;;38.38;24.00;;;102.90;1868.80;;;;;;4915415;29;20428;-69
2021/01/26 05:37:22;;;;;;;42.05;26.83;;;102.80;1868.80;;;;;;4944345;28;20038;-68
2021/01/26 05:40:20;;;;;;;48.45;30.85;;;102.90;1868.80;;;;;;5014110;28;20026;-69
2021/01/26 05:42:51;;;;;;;42.53;28.42;;;102.80;1868.80;;;;;;5014313;28;20040;-69
2021/01/26 05:45:25;;;;;;;32.22;21.52;;;102.80;1868.80;;;;;;5013957;28;20018;-69
2021/01/26 05:48:16;;;;;;;33.25;21.75;;;102.80;1868.80;;;;;;5014091;28;20539;-68
2021/01/26 05:50:43;;;;;;;32.30;18.92;;;102.80;1868.80;;;;;;4996201;28;20426;-69
2021/01/26 05:53:21;;;;;;;31.52;19.58;;;102.80;1868.80;;;;;;5013928;28;20018;-69
2021/01/26 05:56:09;;;;;;;31.52;19.27;;;102.80;1868.80;;;;;;5013918;28;20483;-69
2021/01/26 05:58:36;;;;;;;31.15;19.65;;;102.80;1868.80;;;;;;5013909;28;20037;-68
2021/01/26 06:01:07;;;;;;;31.30;19.73;;;102.70;1868.80;;;;;;5013834;28;20096;-68
2021/01/26 06:03:33;;;;;;;34.35;21.38;;;102.70;1868.80;;;;;;5014035;28;20030;-68
2021/01/26 06:06:00;;;;;;;32.47;18.83;;;102.80;1868.80;;;;;;5014187;28;20068;-68
2021/01/26 06:08:26;;;;;;;31.08;18.10;;;102.80;1868.80;;;;;;5013910;28;20476;-68
2021/01/26 06:10:52;;;;;;;31.40;18.10;;;102.80;1868.80;;;;;;5013946;28;20045;-68
2021/01/26 06:13:27;;;;;;;29.10;17.92;;;102.80;1868.80;;;;;;5013829;28;20026;-68
2021/01/26 06:16:23;;;;;;;38.17;20.60;;;102.80;1868.80;;;;;;5013798;28;20097;-68
2021/01/26 06:19:03;;;;;;;39.42;23.17;;;102.80;1868.80;;;;;;5013846;28;20026;-68
2021/01/26 06:21:31;;;;;;;51.45;27.88;;;102.70;1868.80;;;;;;5013738;28;20054;-69
2021/01/26 06:24:00;;;;;;;48.63;27.23;;;102.80;1868.80;;;;;;5013528;28;20068;-68
2021/01/26 06:26:37;;;;;;;47.58;25.90;;;102.80;1868.80;;;;;;5017531;28;20033;-69
2021/01/26 06:29:05;;;;;;;45.53;24.17;;;102.80;1868.80;;;;;;5017484;28;20076;-69
2021/01/26 06:31:37;;;;;;;46.80;24.13;;;102.80;1868.80;;;;;;5017539;28;20471;-68
2021/01/26 06:34:17;;;;;;;46.88;23.17;;;102.80;1868.80;;;;;;5017546;28;20035;-68
2021/01/26 06:37:00;;;;;;;44.47;24.02;;;102.90;1868.80;;;;;;5017174;28;20530;-69
2021/01/26 06:39:38;;;;;;;41.70;22.38;;;102.90;1868.80;;;;;;5017349;28;20480;-68
2021/01/26 06:42:19;;;;;;;35.25;20.85;;;102.90;1894.40;;;;;;5017275;28;20041;-68
2021/01/26 06:45:01;;;;;;;37.50;21.65;;;102.90;1894.40;;;;;;4999184;28;20041;-68
2021/01/26 06:47:36;;;;;;;41.25;22.75;;;102.90;1894.40;;;;;;5017243;28;20029;-68
2021/01/26 06:50:36;;;;;;;38.05;22.60;;;103.00;1894.40;;;;;;5017174;28;20424;-69
2021/01/26 06:53:38;;;;;;;41.38;23.27;;;103.00;1868.80;;;;;;5012024;28;20030;-69
2021/01/26 06:56:16;;;;;;;39.67;22.73;;;103.10;1868.80;;;;;;5017004;28;20109;-68
2021/01/26 06:58:50;;;;;;;35.17;20.67;;;103.10;1868.80;;;;;;5017005;28;20053;-68
2021/01/26 07:01:29;;;;;;;31.10;20.38;;;103.10;1868.80;;;;;;5016905;28;20033;-68
2021/01/26 07:04:13;;;;;;;38.75;22.80;;;103.10;1868.80;;;;;;5017034;28;20394;-68
2021/01/26 07:06:56;;;;;;;39.88;23.48;;;103.10;1868.80;;;;;;5017033;28;20030;-69
2021/01/26 07:09:54;;;;;;;46.00;25.80;;;103.10;1868.80;;;;;;5016973;28;20030;-67
2021/01/26 07:12:31;;;;;;;49.50;27.17;;;103.10;1868.80;;;;;;5017236;28;20018;-77
2021/01/26 07:15:40;;;;;;;48.17;28.58;;;103.20;1843.20;;;;;;4999211;28;20026;-74
2021/01/26 07:18:36;;;;;;;52.97;27.33;;;103.20;1843.20;;;;;;4861840;29;20033;-69
2021/01/26 07:21:26;;;;;;;50.60;26.92;;;103.20;1868.80;;;;;;4861864;29;20053;-69
2021/01/26 07:24:10;;;;;;;44.88;26.63;;;103.30;1843.20;;;;;;4861778;29;20040;-69
2021/01/26 07:27:15;;;;;;;46.67;26.47;;;103.30;1843.20;;;;;;4861996;29;20037;-69
2021/01/26 07:30:22;;;;;;;47.50;29.50;;;103.30;1843.20;;;;;;4861649;29;20030;-69
2021/01/26 07:33:02;;;;;;;46.55;27.88;;;103.30;1843.20;;;;;;4824760;29;20042;-69
2021/01/26 07:35:37;;;;;;;41.65;26.77;;;128.00;1868.80;;;;;;4824544;29;20030;-69
2021/01/26 07:38:17;;;;;;;;;;;128.00;1843.20;;;;;;4825251;29;20039;-69
2021/01/26 07:40:58;;;;;;;39.42;24.05;;;128.00;1843.20;;;;;;4824612;29;20364;-69
2021/01/26 07:43:34;;;;;;;40.50;23.35;;;128.00;1868.80;;;;;;4824796;29;20038;-69
2021/01/26 07:46:12;;;;;;;36.33;23.33;;;128.00;1868.80;;;;;;4824604;29;20033;-69
2021/01/26 07:49:02;;;;;;;33.53;21.70;;;128.00;1868.80;;;;;;4809399;29;20374;-68
2021/01/26 07:51:33;;;;;;;34.15;21.05;;;128.10;1843.20;;;;;;4824697;29;20478;-69
2021/01/26 07:54:15;;;;;;;33.83;21.85;;;128.10;1843.20;;;;;;4832012;29;20444;-69
2021/01/26 07:56:41;;;;;;;31.67;20.52;;;128.10;1843.20;;;;;;4936470;29;20129;-69
2021/01/26 07:59:07;;;;;;;37.80;20.77;;;128.10;1843.20;;;;;;4936439;29;20375;-69
2021/01/26 08:01:38;;;;;;;41.53;22.80;;;128.20;1843.20;;;;;;4936464;29;20042;-68
2021/01/26 08:04:05;;;;;;;39.60;23.45;;;128.20;1843.20;;;;;;4936379;29;20533;-69
2021/01/26 08:06:44;;;;;;;45.60;25.98;;;128.20;1843.20;;;;;;4936341;29;20142;-69
2021/01/26 08:09:19;;;;;;;46.70;25.25;;;128.20;1817.60;;;;;;4973807;28;20037;-69
2021/01/26 08:11:59;;;;;;;45.60;25.90;;;128.20;1817.60;;;;;;5015919;28;20041;-69
2021/01/26 08:14:31;;;;;;;44.05;24.13;;;128.20;1817.60;;;;;;5015634;28;20029;-68
2021/01/26 08:17:00;;;;;;;47.13;26.45;;;128.30;1843.20;;;;;;5015525;28;20115;-68
2021/01/26 08:19:39;;;;;;;52.53;28.38;;;128.30;1817.60;;;;;;5015629;28;20100;-69
2021/01/26 08:22:20;;;;;;;48.75;26.83;;;128.30;1817.60;;;;;;5015595;28;20077;-69
2021/01/26 08:24:47;;;;;;;49.03;25.98;;;128.30;1817.60;;;;;;5015444;28;20073;-69
2021/01/26 08:27:28;;;;;;;39.92;24.70;;;128.30;1817.60;;;;;;5015471;28;20046;-68
2021/01/26 08:29:59;;;;;;;44.13;23.90;;;128.40;1817.60;;;;;;5015396;28;20025;-69
2021/01/26 08:32:25;;;;;;;43.10;23.10;;;128.40;1817.60;;;;;;5015441;28;20074;-69
2021/01/26 08:35:21;;;;;;;36.80;21.48;;;128.40;1792.00;;;;;;5015376;28;20376;-68
2021/01/26 08:37:53;;;;;;;34.60;19.85;;;128.50;1792.00;;;;;;5015224;28;20112;-69
2021/01/26 08:40:42;;;;;;;38.35;23.77;;;128.40;1817.60;;;;;;5015277;28;20030;-69
2021/01/26 08:43:08;;;;;;;37.85;23.55;;;128.40;1817.60;;;;;;4916680;29;20405;-69
2021/01/26 08:45:34;;;;;;;36.45;23.02;;;128.40;1817.60;;;;;;4916484;29;20055;-69
2021/01/26 08:48:03;;;;;;;36.25;22.52;;;128.40;1792.00;;;;;;4915924;29;20033;-69
2021/01/26 08:51:01;;;;;;;44.42;24.40;;;128.40;1792.00;;;;;;4916575;29;20028;-69
2021/01/26 08:53:26;;;;;;;39.33;23.88;;;128.50;1792.00;;;;;;4897383;29;20072;-69
2021/01/26 08:56:01;;;;;;;44.45;24.83;;;128.50;1817.60;;;;;;4897477;29;20063;-69
2021/01/26 08:58:38;;;;;;;47.10;22.67;;;128.50;1792.00;;;;;;4897619;29;20064;-69
2021/01/26 09:01:06;;;;;;;37.65;22.25;;;128.50;1792.00;;;;;;4897369;29;20534;-69
2021/01/26 09:03:42;;;;;;;36.67;21.88;;;128.50;1792.00;;;;;;4897403;29;20044;-68
2021/01/26 09:06:42;;;;;;;37.95;23.23;;;128.50;1792.00;;;;;;4897318;29;20037;-69
2021/01/26 09:09:30;;;;;;;33.75;21.05;;;128.50;1792.00;;;;;;4897208;29;20029;-69
2021/01/26 09:12:00;;;;;;;36.45;22.00;;;128.50;1792.00;;;;;;4855200;29;20132;-69
2021/01/26 09:14:49;;;;;;;36.78;22.42;;;128.50;1792.00;;;;;;4860002;29;20029;-68
2021/01/26 09:17:18;;;;;;;40.17;22.48;;;128.50;1792.00;;;;;;4859927;29;20033;-69
2021/01/26 09:19:51;;;;;;;38.60;23.05;;;128.50;1792.00;;;;;;4859802;29;20066;-68
2021/01/26 09:22:24;;;;;;;36.45;23.23;;;128.50;1792.00;;;;;;4860026;29;20128;-69
2021/01/26 09:25:15;;;;;;;37.85;22.05;;;128.60;1792.00;;;;;;4859642;29;20064;-69
2021/01/26 09:27:41;;;;;;;33.50;20.98;;;128.60;1766.40;;;;;;4859775;29;20120;-69
2021/01/26 09:30:20;;;;;;;33.90;20.85;;;128.60;1792.00;;;;;;4894732;29;20414;-69
2021/01/26 09:33:00;;;;;;;35.33;20.95;;;128.70;1766.40;;;;;;4915808;29;20042;-69
2021/01/26 09:35:34;;;;;;;35.58;22.15;;;128.70;1792.00;;;;;;4915898;29;20050;-69
2021/01/26 09:38:26;;;;;;;34.60;22.58;;;128.70;1766.40;;;;;;4915689;29;20498;-69
2021/01/26 09:40:59;;;;;;;35.55;21.23;;;128.70;1766.40;;;;;;4915677;29;20040;-69
2021/01/26 09:43:27;;;;;;;36.88;21.90;;;128.70;1766.40;;;;;;4915627;29;20486;-68
2021/01/26 09:46:19;;;;;;;34.58;22.20;;;128.70;1766.40;;;;;;4915454;29;20035;-69
2021/01/26 09:48:47;;;;;;;40.67;23.30;;;128.70;1766.40;;;;;;4886972;29;20039;-69
2021/01/26 09:51:42;;;;;;;41.00;24.08;;;128.80;1766.40;;;;;;4934884;29;20107;-68
2021/01/26 09:54:29;;;;;;;38.90;21.92;;;128.80;1766.40;;;;;;4934714;29;20032;-69
2021/01/26 09:56:57;;;;;;;34.90;20.75;;;128.80;1740.80;;;;;;4934435;29;20035;-68
2021/01/26 09:59:24;;;;;;;39.58;23.23;;;128.80;1740.80;;;;;;4934198;29;20039;-69
2021/01/26 10:01:50;;;;;;;40.40;23.02;;;128.80;1740.80;;;;;;4934425;29;20040;-69
2021/01/26 10:04:18;;;;;;;34.63;20.60;;;128.90;1766.40;;;;;;4934488;29;20032;-69
2021/01/26 10:06:44;;;;;;;39.88;21.98;;;128.90;1740.80;;;;;;4934413;29;20474;-69
2021/01/26 10:09:17;;;;;;;40.47;23.25;;;128.90;1740.80;;;;;;4934854;29;20160;-69
2021/01/26 10:11:42;;;;;;;41.40;23.95;;;153.60;1740.80;;;;;;4934604;29;20028;-69
2021/01/26 10:14:27;;;;;;;46.15;25.65;;;153.60;1740.80;;;;;;4934458;29;20070;-68
2021/01/26 10:16:58;;;;;;;;;;;153.70;1740.80;;;;;;4934756;29;20020;-69
2021/01/26 10:19:33;;;;;;;43.05;24.48;;;153.70;1740.80;;;;;;4934422;29;20341;-69
2021/01/26 10:22:12;;;;;;;;;;;153.70;1740.80;;;;;;4934582;29;20410;-69
2021/01/26 10:24:39;;;;;;;52.08;26.83;;;153.80;1740.80;;;;;;4938375;28;19977;-69
2021/01/26 10:27:12;;;;;;;50.22;26.27;;;153.80;1740.80;;;;;;5009796;28;20490;-69
2021/01/26 10:29:40;;;;;;;42.38;23.95;;;153.80;1740.80;;;;;;5013644;28;20423;-69
2021/01/26 10:32:08;;;;;;;47.17;25.30;;;153.90;1740.80;;;;;;5013863;28;20375;-69
2021/01/26 10:34:40;;;;;;;40.25;24.25;;;153.90;1740.80;;;;;;5013532;28;20026;-69
2021/01/26 10:37:12;;;;;;;38.17;23.52;;;153.90;1715.20;;;;;;5013951;28;20091;-69
2021/01/26 10:39:38;;;;;;;35.95;22.92;;;153.90;1715.20;;;;;;5013747;28;20019;-69
2021/01/26 10:42:12;;;;;;;36.60;22.55;;;154.00;1715.20;;;;;;5013430;28;20042;-68
2021/01/26 10:44:49;;;;;;;39.15;23.13;;;153.90;1715.20;;;;;;5013326;28;20022;-69
2021/01/26 10:47:27;;;;;;;39.50;22.80;;;154.00;1715.20;;;;;;5013473;28;20567;-69
2021/01/26 10:50:15;;;;;;;38.78;22.13;;;154.00;1715.20;;;;;;5013612;28;20029;-68
2021/01/26 10:52:43;;;;;;;46.22;25.38;;;154.00;1715.20;;;;;;5013424;28;20495;-69
2021/01/26 10:55:12;;;;;;;35.50;23.15;;;154.00;1715.20;;;;;;5013523;28;20050;-69
2021/01/26 10:57:42;;;;;;;35.30;21.88;;;154.00;1715.20;;;;;;5013345;28;20022;-69
2021/01/26 11:00:11;;;;;;;35.38;22.15;;;154.10;1689.60;;;;;;5013400;28;20081;-70
2021/01/26 11:02:36;;;;;;;39.25;22.52;;;154.10;1689.60;;;;;;5013319;28;20038;-69
2021/01/26 11:05:05;;;;;;;36.78;22.05;;;154.10;1689.60;;;;;;5013475;28;20026;-69
2021/01/26 11:07:30;;;;;;;37.05;21.13;;;154.10;1664.00;;;;;;5013320;28;20116;-68
2021/01/26 11:09:58;;;;;;;40.35;21.95;;;154.10;1664.00;;;;;;5013404;28;20108;-69
2021/01/26 11:12:24;;;;;;;36.30;22.88;;;154.10;1689.60;;;;;;5016666;28;20112;-69
2021/01/26 11:14:51;;;;;;;39.42;22.02;;;154.10;1664.00;;;;;;5016564;28;20475;-68
2021/01/26 11:17:17;;;;;;;36.35;21.80;;;154.20;1664.00;;;;;;5016916;28;20026;-69
2021/01/26 11:19:47;;;;;;;46.88;25.88;;;154.20;1689.60;;;;;;5016795;28;20030;-68
2021/01/26 11:22:13;;;;;;;48.08;27.17;;;154.20;1664.00;;;;;;5016649;28;20036;-69
2021/01/26 11:24:38;;;;;;;50.95;25.65;;;154.30;1664.00;;;;;;5016384;28;20042;-69
2021/01/26 11:27:04;;;;;;;49.67;26.80;;;154.30;1664.00;;;;;;5016446;28;20049;-68
2021/01/26 11:29:30;;;;;;;41.17;25.33;;;154.30;1664.00;;;;;;5016625;28;20018;-69
2021/01/26 11:31:56;;;;;;;43.47;23.73;;;154.30;1664.00;;;;;;5016362;28;20126;-69
2021/01/26 11:34:22;;;;;;;35.58;20.63;;;154.30;1638.40;;;;;;5016426;28;20388;-70
2021/01/26 11:36:48;;;;;;;41.00;24.23;;;154.30;1638.40;;;;;;5016465;28;20026;-68
2021/01/26 11:39:14;;;;;;;43.38;25.38;;;154.40;1638.40;;;;;;5016581;28;20080;-69
2021/01/26 11:41:40;;;;;;;48.63;25.55;;;154.50;1638.40;;;;;;5016278;28;20448;-69
2021/01/26 11:44:06;;;;;;;49.63;26.88;;;154.50;1638.40;;;;;;5016153;28;20487;-69
2021/01/26 11:46:32;;;;;;;43.08;23.77;;;154.50;1612.80;;;;;;5016211;28;20033;-69
2021/01/26 11:48:58;;;;;;;38.47;23.10;;;154.50;1612.80;;;;;;5016246;28;20022;-70
2021/01/26 11:51:24;;;;;;;38.33;23.10;;;154.50;1612.80;;;;;;5016068;28;20380;-68
2021/01/26 11:53:51;;;;;;;44.67;24.88;;;179.20;1638.40;;;;;;5015940;28;20026;-70
2021/01/26 11:56:19;;;;;;;46.28;28.25;;;179.20;1638.40;;;;;;4998061;28;20034;-69
2021/01/26 11:58:45;;;;;;;55.35;31.85;;;179.30;1638.40;;;;;;5016021;28;20075;-69
2021/01/26 12:01:11;;;;;;;47.47;29.25;;;179.30;1638.40;;;;;;5015847;28;20153;-69
2021/01/26 12:03:37;;;;;;;44.60;26.25;;;179.30;1638.40;;;;;;5015901;28;20484;-70
2021/01/26 12:06:03;;;;;;;39.80;25.83;;;179.30;1612.80;;;;;;5015900;28;20030;-69
2021/01/26 12:08:29;;;;;;;40.92;23.17;;;179.40;1612.80;;;;;;5016535;28;20034;-69
2021/01/26 12:10:55;;;;;;;39.03;23.13;;;179.40;1587.20;;;;;;5015672;28;20033;-69
2021/01/26 12:13:21;;;;;;;34.03;20.20;;;179.40;1587.20;;;;;;5015685;28;20018;-69
2021/01/26 12:15:47;;;;;;;31.00;18.73;;;179.40;1587.20;;;;;;5015628;28;20108;-69
2021/01/26 12:18:13;;;;;;;31.58;19.75;;;179.40;1561.60;;;;;;5015707;28;20050;-69
2021/01/26 12:20:39;;;;;;;36.13;21.85;;;179.40;1587.20;;;;;;5015668;28;20092;-68
2021/01/26 12:23:05;;;;;;;40.50;23.67;;;179.40;1587.20;;;;;;5014213;28;20018;-69
2021/01/26 12:25:32;;;;;;;37.20;22.02;;;179.40;1561.60;;;;;;5015279;28;20084;-69
2021/01/26 12:27:59;;;;;;;43.90;22.50;;;179.40;1561.60;;;;;;5015821;28;20025;-69
2021/01/26 12:30:25;;;;;;;33.88;20.52;;;179.40;1561.60;;;;;;5015261;28;20030;-69
2021/01/26 12:32:51;;;;;;;34.72;21.50;;;179.40;1561.60;;;;;;5015245;28;20470;-69
2021/01/26 12:35:24;;;;;;;43.17;23.63;;;179.50;1561.60;;;;;;5015357;28;20037;-69
2021/01/26 12:37:50;;;;;;;35.45;21.58;;;179.50;1561.60;;;;;;5015203;28;20071;-69